sensor_id;sensor_type;location;lat;lon;timestamp;P1;durP1;ratioP1;P2;durP2;ratioP2
11504;SDS011;5809;53.262;10.408;2022-07-12T00:00:34;4.63;;;3.42;;
11504;SDS011;5809;53.262;10.408;2022-07-12T00:03:01;4.10;;;3.58;;
11504;SDS011;5809;53.262;10.408;2022-07-12T00:05:28;5.22;;;3.88;;
11504;SDS011;5809;53.262;10.408;2022-07-12T00:07:56;4.55;;;3.75;;
11504;SDS011;5809;53.262;10.408;2022-07-12T00:10:24;5.30;;;4.28;;
11504;SDS011;5809;53.262;10.408;2022-07-12T00:12:51;3.80;;;3.40;;
11504;SDS011;5809;53.262;10.408;2022-07-12T00:15:19;5.57;;;4.15;;
11504;SDS011;5809;53.262;10.408;2022-07-12T00:17:46;5.32;;;3.92;;
11504;SDS011;5809;53.262;10.408;2022-07-12T00:20:13;5.00;;;4.05;;
11504;SDS011;5809;53.262;10.408;2022-07-12T00:22:40;4.78;;;3.70;;
11504;SDS011;5809;53.262;10.408;2022-07-12T00:25:07;4.97;;;4.13;;
11504;SDS011;5809;53.262;10.408;2022-07-12T00:27:36;4.20;;;3.60;;
11504;SDS011;5809;53.262;10.408;2022-07-12T00:30:04;6.28;;;4.07;;
11504;SDS011;5809;53.262;10.408;2022-07-12T00:32:32;6.85;;;4.10;;
11504;SDS011;5809;53.262;10.408;2022-07-12T00:34:59;5.20;;;4.55;;
11504;SDS011;5809;53.262;10.408;2022-07-12T00:37:27;6.25;;;4.30;;
11504;SDS011;5809;53.262;10.408;2022-07-12T00:39:55;5.27;;;4.80;;
11504;SDS011;5809;53.262;10.408;2022-07-12T00:42:22;5.40;;;4.20;;
11504;SDS011;5809;53.262;10.408;2022-07-12T00:44:51;5.65;;;4.25;;
11504;SDS011;5809;53.262;10.408;2022-07-12T00:47:27;5.10;;;4.53;;
11504;SDS011;5809;53.262;10.408;2022-07-12T00:50:02;5.32;;;4.45;;
11504;SDS011;5809;53.262;10.408;2022-07-12T00:52:30;5.88;;;4.68;;
11504;SDS011;5809;53.262;10.408;2022-07-12T00:54:57;5.03;;;4.38;;
11504;SDS011;5809;53.262;10.408;2022-07-12T00:57:24;4.95;;;4.10;;
11504;SDS011;5809;53.262;10.408;2022-07-12T00:59:53;4.47;;;3.95;;
11504;SDS011;5809;53.262;10.408;2022-07-12T01:02:20;4.90;;;4.40;;
11504;SDS011;5809;53.262;10.408;2022-07-12T01:04:47;4.55;;;4.15;;
11504;SDS011;5809;53.262;10.408;2022-07-12T01:07:14;4.53;;;4.13;;
11504;SDS011;5809;53.262;10.408;2022-07-12T01:09:41;5.03;;;4.47;;
11504;SDS011;5809;53.262;10.408;2022-07-12T01:12:09;4.68;;;4.28;;
11504;SDS011;5809;53.262;10.408;2022-07-12T01:14:37;4.87;;;4.47;;
11504;SDS011;5809;53.262;10.408;2022-07-12T01:17:07;5.35;;;4.70;;
11504;SDS011;5809;53.262;10.408;2022-07-12T01:19:35;5.17;;;4.67;;
11504;SDS011;5809;53.262;10.408;2022-07-12T01:22:03;5.40;;;4.90;;
11504;SDS011;5809;53.262;10.408;2022-07-12T01:24:36;5.07;;;4.60;;
11504;SDS011;5809;53.262;10.408;2022-07-12T01:27:03;5.87;;;5.17;;
11504;SDS011;5809;53.262;10.408;2022-07-12T01:29:31;5.90;;;5.40;;
11504;SDS011;5809;53.262;10.408;2022-07-12T01:31:59;6.17;;;5.40;;
11504;SDS011;5809;53.262;10.408;2022-07-12T01:34:48;6.23;;;5.17;;
11504;SDS011;5809;53.262;10.408;2022-07-12T01:37:16;8.27;;;5.00;;
11504;SDS011;5809;53.262;10.408;2022-07-12T01:39:45;7.00;;;5.50;;
11504;SDS011;5809;53.262;10.408;2022-07-12T01:42:13;5.85;;;5.35;;
11504;SDS011;5809;53.262;10.408;2022-07-12T01:44:40;5.90;;;5.30;;
11504;SDS011;5809;53.262;10.408;2022-07-12T01:47:08;10.93;;;6.03;;
11504;SDS011;5809;53.262;10.408;2022-07-12T01:49:35;8.97;;;5.83;;
11504;SDS011;5809;53.262;10.408;2022-07-12T01:52:02;7.85;;;5.68;;
11504;SDS011;5809;53.262;10.408;2022-07-12T01:54:30;6.50;;;5.63;;
11504;SDS011;5809;53.262;10.408;2022-07-12T01:56:58;6.70;;;6.00;;
11504;SDS011;5809;53.262;10.408;2022-07-12T01:59:25;6.40;;;5.80;;
11504;SDS011;5809;53.262;10.408;2022-07-12T02:01:52;6.30;;;5.70;;
11504;SDS011;5809;53.262;10.408;2022-07-12T02:04:20;7.80;;;5.27;;
11504;SDS011;5809;53.262;10.408;2022-07-12T02:06:47;6.03;;;5.37;;
11504;SDS011;5809;53.262;10.408;2022-07-12T02:09:15;6.23;;;5.63;;
11504;SDS011;5809;53.262;10.408;2022-07-12T02:11:43;5.53;;;5.03;;
11504;SDS011;5809;53.262;10.408;2022-07-12T02:14:11;6.27;;;5.67;;
11504;SDS011;5809;53.262;10.408;2022-07-12T02:16:39;7.22;;;5.47;;
11504;SDS011;5809;53.262;10.408;2022-07-12T02:19:07;6.03;;;4.93;;
11504;SDS011;5809;53.262;10.408;2022-07-12T02:21:34;6.73;;;5.70;;
11504;SDS011;5809;53.262;10.408;2022-07-12T02:24:01;6.23;;;5.30;;
11504;SDS011;5809;53.262;10.408;2022-07-12T02:26:28;6.73;;;5.27;;
11504;SDS011;5809;53.262;10.408;2022-07-12T02:28:55;5.57;;;5.07;;
11504;SDS011;5809;53.262;10.408;2022-07-12T02:31:24;7.55;;;5.18;;
11504;SDS011;5809;53.262;10.408;2022-07-12T02:33:51;5.90;;;5.30;;
11504;SDS011;5809;53.262;10.408;2022-07-12T02:36:18;5.77;;;5.17;;
11504;SDS011;5809;53.262;10.408;2022-07-12T02:38:45;5.03;;;4.53;;
11504;SDS011;5809;53.262;10.408;2022-07-12T02:41:12;6.23;;;4.90;;
11504;SDS011;5809;53.262;10.408;2022-07-12T02:43:39;7.33;;;5.20;;
11504;SDS011;5809;53.262;10.408;2022-07-12T02:46:07;5.07;;;4.63;;
11504;SDS011;5809;53.262;10.408;2022-07-12T02:48:36;4.70;;;4.27;;
11504;SDS011;5809;53.262;10.408;2022-07-12T02:51:03;5.33;;;4.87;;
11504;SDS011;5809;53.262;10.408;2022-07-12T02:53:31;5.77;;;4.83;;
11504;SDS011;5809;53.262;10.408;2022-07-12T02:55:58;5.17;;;4.67;;
11504;SDS011;5809;53.262;10.408;2022-07-12T02:58:25;5.10;;;4.60;;
11504;SDS011;5809;53.262;10.408;2022-07-12T03:00:52;5.40;;;4.60;;
11504;SDS011;5809;53.262;10.408;2022-07-12T03:03:20;5.77;;;4.93;;
11504;SDS011;5809;53.262;10.408;2022-07-12T03:05:48;6.77;;;5.60;;
11504;SDS011;5809;53.262;10.408;2022-07-12T03:08:15;6.70;;;5.00;;
11504;SDS011;5809;53.262;10.408;2022-07-12T03:10:42;5.93;;;5.33;;
11504;SDS011;5809;53.262;10.408;2022-07-12T03:13:09;5.80;;;5.30;;
11504;SDS011;5809;53.262;10.408;2022-07-12T03:15:36;5.60;;;5.10;;
11504;SDS011;5809;53.262;10.408;2022-07-12T03:18:03;6.13;;;5.13;;
11504;SDS011;5809;53.262;10.408;2022-07-12T03:20:30;8.47;;;4.77;;
11504;SDS011;5809;53.262;10.408;2022-07-12T03:22:59;6.97;;;5.03;;
11504;SDS011;5809;53.262;10.408;2022-07-12T03:25:26;6.47;;;4.87;;
11504;SDS011;5809;53.262;10.408;2022-07-12T03:27:53;6.10;;;5.53;;
11504;SDS011;5809;53.262;10.408;2022-07-12T03:30:20;6.13;;;5.53;;
11504;SDS011;5809;53.262;10.408;2022-07-12T03:32:47;6.87;;;5.97;;
11504;SDS011;5809;53.262;10.408;2022-07-12T03:35:14;7.43;;;6.57;;
11504;SDS011;5809;53.262;10.408;2022-07-12T03:37:42;8.07;;;6.87;;
11504;SDS011;5809;53.262;10.408;2022-07-12T03:40:11;8.07;;;7.10;;
11504;SDS011;5809;53.262;10.408;2022-07-12T03:42:39;8.40;;;7.27;;
11504;SDS011;5809;53.262;10.408;2022-07-12T03:45:07;11.10;;;6.87;;
11504;SDS011;5809;53.262;10.408;2022-07-12T03:47:34;10.47;;;7.23;;
11504;SDS011;5809;53.262;10.408;2022-07-12T03:50:02;8.97;;;7.37;;
11504;SDS011;5809;53.262;10.408;2022-07-12T03:52:30;7.70;;;6.90;;
11504;SDS011;5809;53.262;10.408;2022-07-12T03:54:57;7.20;;;6.30;;
11504;SDS011;5809;53.262;10.408;2022-07-12T03:57:26;11.13;;;7.00;;
11504;SDS011;5809;53.262;10.408;2022-07-12T03:59:53;7.10;;;6.40;;
11504;SDS011;5809;53.262;10.408;2022-07-12T04:02:20;7.17;;;6.40;;
11504;SDS011;5809;53.262;10.408;2022-07-12T04:04:47;7.00;;;6.30;;
11504;SDS011;5809;53.262;10.408;2022-07-12T04:07:14;6.87;;;6.13;;
11504;SDS011;5809;53.262;10.408;2022-07-12T04:09:41;6.63;;;6.03;;
11504;SDS011;5809;53.262;10.408;2022-07-12T04:12:08;8.03;;;5.83;;
11504;SDS011;5809;53.262;10.408;2022-07-12T04:14:37;6.97;;;5.90;;
11504;SDS011;5809;53.262;10.408;2022-07-12T04:17:04;7.50;;;5.93;;
11504;SDS011;5809;53.262;10.408;2022-07-12T04:19:31;6.10;;;5.50;;
11504;SDS011;5809;53.262;10.408;2022-07-12T04:21:59;6.67;;;5.97;;
11504;SDS011;5809;53.262;10.408;2022-07-12T04:24:26;7.40;;;5.20;;
11504;SDS011;5809;53.262;10.408;2022-07-12T04:26:53;6.75;;;6.05;;
11504;SDS011;5809;53.262;10.408;2022-07-12T04:29:20;6.70;;;6.00;;
11504;SDS011;5809;53.262;10.408;2022-07-12T04:31:49;6.47;;;5.88;;
11504;SDS011;5809;53.262;10.408;2022-07-12T04:34:16;7.43;;;6.20;;
11504;SDS011;5809;53.262;10.408;2022-07-12T04:36:43;6.65;;;5.78;;
11504;SDS011;5809;53.262;10.408;2022-07-12T04:39:10;7.15;;;5.50;;
11504;SDS011;5809;53.262;10.408;2022-07-12T04:41:38;7.17;;;5.47;;
11504;SDS011;5809;53.262;10.408;2022-07-12T04:44:05;6.30;;;5.18;;
11504;SDS011;5809;53.262;10.408;2022-07-12T04:46:32;7.88;;;4.82;;
11504;SDS011;5809;53.262;10.408;2022-07-12T04:49:01;6.47;;;5.10;;
11504;SDS011;5809;53.262;10.408;2022-07-12T04:51:28;5.82;;;4.47;;
11504;SDS011;5809;53.262;10.408;2022-07-12T04:53:56;5.07;;;4.57;;
11504;SDS011;5809;53.262;10.408;2022-07-12T04:56:22;4.43;;;4.03;;
11504;SDS011;5809;53.262;10.408;2022-07-12T04:58:49;4.13;;;3.83;;
11504;SDS011;5809;53.262;10.408;2022-07-12T05:01:16;4.30;;;3.90;;
11504;SDS011;5809;53.262;10.408;2022-07-12T05:03:44;5.28;;;3.63;;
11504;SDS011;5809;53.262;10.408;2022-07-12T05:06:12;4.10;;;3.40;;
11504;SDS011;5809;53.262;10.408;2022-07-12T05:08:39;5.75;;;3.15;;
11504;SDS011;5809;53.262;10.408;2022-07-12T05:11:06;3.58;;;2.88;;
11504;SDS011;5809;53.262;10.408;2022-07-12T05:13:33;3.08;;;2.70;;
11504;SDS011;5809;53.262;10.408;2022-07-12T05:16:00;4.80;;;2.95;;
11504;SDS011;5809;53.262;10.408;2022-07-12T05:18:27;3.33;;;3.03;;
11504;SDS011;5809;53.262;10.408;2022-07-12T05:20:54;2.90;;;2.70;;
11504;SDS011;5809;53.262;10.408;2022-07-12T05:23:23;3.15;;;2.90;;
11504;SDS011;5809;53.262;10.408;2022-07-12T05:25:50;3.47;;;2.90;;
11504;SDS011;5809;53.262;10.408;2022-07-12T05:28:17;4.20;;;2.80;;
11504;SDS011;5809;53.262;10.408;2022-07-12T05:30:44;3.72;;;3.00;;
11504;SDS011;5809;53.262;10.408;2022-07-12T05:33:11;5.70;;;2.72;;
11504;SDS011;5809;53.262;10.408;2022-07-12T05:35:38;3.92;;;3.22;;
11504;SDS011;5809;53.262;10.408;2022-07-12T05:38:05;4.15;;;3.70;;
11504;SDS011;5809;53.262;10.408;2022-07-12T05:40:33;5.85;;;3.85;;
11504;SDS011;5809;53.262;10.408;2022-07-12T05:43:00;5.60;;;3.40;;
11504;SDS011;5809;53.262;10.408;2022-07-12T05:45:27;5.40;;;3.60;;
11504;SDS011;5809;53.262;10.408;2022-07-12T05:47:54;3.75;;;3.45;;
11504;SDS011;5809;53.262;10.408;2022-07-12T05:50:21;4.13;;;3.53;;
11504;SDS011;5809;53.262;10.408;2022-07-12T05:52:48;4.30;;;3.30;;
11504;SDS011;5809;53.262;10.408;2022-07-12T05:55:34;4.25;;;3.20;;
11504;SDS011;5809;53.262;10.408;2022-07-12T05:58:01;4.13;;;3.50;;
11504;SDS011;5809;53.262;10.408;2022-07-12T06:00:28;4.65;;;4.00;;
11504;SDS011;5809;53.262;10.408;2022-07-12T06:02:57;3.50;;;3.00;;
11504;SDS011;5809;53.262;10.408;2022-07-12T06:05:24;4.15;;;3.70;;
11504;SDS011;5809;53.262;10.408;2022-07-12T06:07:51;3.92;;;3.20;;
11504;SDS011;5809;53.262;10.408;2022-07-12T06:10:18;2.53;;;2.33;;
11504;SDS011;5809;53.262;10.408;2022-07-12T06:12:46;2.28;;;2.08;;
11504;SDS011;5809;53.262;10.408;2022-07-12T06:15:13;2.42;;;2.20;;
11504;SDS011;5809;53.262;10.408;2022-07-12T06:17:41;3.35;;;1.90;;
11504;SDS011;5809;53.262;10.408;2022-07-12T06:20:08;2.35;;;2.10;;
11504;SDS011;5809;53.262;10.408;2022-07-12T06:22:36;2.63;;;2.30;;
11504;SDS011;5809;53.262;10.408;2022-07-12T06:25:03;2.40;;;2.17;;
11504;SDS011;5809;53.262;10.408;2022-07-12T06:27:31;2.53;;;2.30;;
11504;SDS011;5809;53.262;10.408;2022-07-12T06:30:00;2.40;;;2.20;;
11504;SDS011;5809;53.262;10.408;2022-07-12T06:32:27;6.18;;;2.50;;
11504;SDS011;5809;53.262;10.408;2022-07-12T06:34:55;2.67;;;2.40;;
11504;SDS011;5809;53.262;10.408;2022-07-12T06:37:22;2.13;;;1.90;;
11504;SDS011;5809;53.262;10.408;2022-07-12T06:39:49;3.33;;;1.92;;
11504;SDS011;5809;53.262;10.408;2022-07-12T06:42:16;3.17;;;2.13;;
11504;SDS011;5809;53.262;10.408;2022-07-12T06:44:43;2.45;;;2.20;;
11504;SDS011;5809;53.262;10.408;2022-07-12T06:47:11;3.65;;;2.10;;
11504;SDS011;5809;53.262;10.408;2022-07-12T06:49:38;2.08;;;1.98;;
11504;SDS011;5809;53.262;10.408;2022-07-12T06:52:06;2.92;;;2.08;;
11504;SDS011;5809;53.262;10.408;2022-07-12T06:54:33;2.00;;;1.90;;
11504;SDS011;5809;53.262;10.408;2022-07-12T06:57:00;2.10;;;1.67;;
11504;SDS011;5809;53.262;10.408;2022-07-12T06:59:27;2.25;;;1.83;;
11504;SDS011;5809;53.262;10.408;2022-07-12T07:01:54;2.70;;;1.65;;
11504;SDS011;5809;53.262;10.408;2022-07-12T07:04:24;1.95;;;1.65;;
11504;SDS011;5809;53.262;10.408;2022-07-12T07:06:51;2.70;;;1.80;;
11504;SDS011;5809;53.262;10.408;2022-07-12T07:09:18;1.80;;;1.70;;
11504;SDS011;5809;53.262;10.408;2022-07-12T07:11:45;2.03;;;1.70;;
11504;SDS011;5809;53.262;10.408;2022-07-12T07:14:11;2.42;;;2.22;;
11504;SDS011;5809;53.262;10.408;2022-07-12T07:16:38;7.90;;;6.20;;
11504;SDS011;5809;53.262;10.408;2022-07-12T07:19:05;3.75;;;3.35;;
11504;SDS011;5809;53.262;10.408;2022-07-12T07:21:34;3.25;;;2.40;;
11504;SDS011;5809;53.262;10.408;2022-07-12T07:24:03;2.88;;;2.00;;
11504;SDS011;5809;53.262;10.408;2022-07-12T07:26:30;4.55;;;3.88;;
11504;SDS011;5809;53.262;10.408;2022-07-12T07:28:59;4.55;;;3.20;;
11504;SDS011;5809;53.262;10.408;2022-07-12T07:31:44;8.30;;;7.30;;
11504;SDS011;5809;53.262;10.408;2022-07-12T07:34:11;2.75;;;2.00;;
11504;SDS011;5809;53.262;10.408;2022-07-12T07:36:39;2.13;;;1.70;;
11504;SDS011;5809;53.262;10.408;2022-07-12T07:39:06;1.50;;;1.40;;
11504;SDS011;5809;53.262;10.408;2022-07-12T07:41:34;2.40;;;1.83;;
11504;SDS011;5809;53.262;10.408;2022-07-12T07:44:01;1.75;;;1.65;;
11504;SDS011;5809;53.262;10.408;2022-07-12T07:46:28;3.05;;;1.80;;
11504;SDS011;5809;53.262;10.408;2022-07-12T07:48:54;1.75;;;1.63;;
11504;SDS011;5809;53.262;10.408;2022-07-12T07:51:21;3.22;;;1.52;;
11504;SDS011;5809;53.262;10.408;2022-07-12T07:53:50;1.80;;;1.70;;
11504;SDS011;5809;53.262;10.408;2022-07-12T07:56:17;3.50;;;1.80;;
11504;SDS011;5809;53.262;10.408;2022-07-12T07:58:44;3.13;;;1.90;;
11504;SDS011;5809;53.262;10.408;2022-07-12T08:01:11;2.10;;;1.90;;
11504;SDS011;5809;53.262;10.408;2022-07-12T08:03:38;3.80;;;1.95;;
11504;SDS011;5809;53.262;10.408;2022-07-12T08:06:05;1.95;;;1.85;;
11504;SDS011;5809;53.262;10.408;2022-07-12T08:08:32;2.13;;;1.90;;
11504;SDS011;5809;53.262;10.408;2022-07-12T08:11:01;2.92;;;1.70;;
11504;SDS011;5809;53.262;10.408;2022-07-12T08:13:28;2.60;;;2.10;;
11504;SDS011;5809;53.262;10.408;2022-07-12T08:15:55;2.80;;;2.00;;
11504;SDS011;5809;53.262;10.408;2022-07-12T08:18:22;2.60;;;1.80;;
11504;SDS011;5809;53.262;10.408;2022-07-12T08:20:49;2.13;;;1.90;;
11504;SDS011;5809;53.262;10.408;2022-07-12T08:23:16;2.30;;;1.85;;
11504;SDS011;5809;53.262;10.408;2022-07-12T08:25:43;2.30;;;1.80;;
11504;SDS011;5809;53.262;10.408;2022-07-12T08:28:11;2.08;;;1.73;;
11504;SDS011;5809;53.262;10.408;2022-07-12T08:30:38;1.70;;;1.60;;
11504;SDS011;5809;53.262;10.408;2022-07-12T08:33:05;1.75;;;1.65;;
11504;SDS011;5809;53.262;10.408;2022-07-12T08:35:32;1.83;;;1.55;;
11504;SDS011;5809;53.262;10.408;2022-07-12T08:37:59;1.80;;;1.70;;
11504;SDS011;5809;53.262;10.408;2022-07-12T08:40:27;1.70;;;1.60;;
11504;SDS011;5809;53.262;10.408;2022-07-12T08:42:56;3.10;;;1.60;;
11504;SDS011;5809;53.262;10.408;2022-07-12T08:45:26;1.65;;;1.50;;
11504;SDS011;5809;53.262;10.408;2022-07-12T08:47:53;2.38;;;1.80;;
11504;SDS011;5809;53.262;10.408;2022-07-12T08:50:21;1.88;;;1.58;;
11504;SDS011;5809;53.262;10.408;2022-07-12T08:52:50;1.70;;;1.60;;
11504;SDS011;5809;53.262;10.408;2022-07-12T08:55:19;1.65;;;1.55;;
11504;SDS011;5809;53.262;10.408;2022-07-12T08:57:48;2.33;;;2.08;;
11504;SDS011;5809;53.262;10.408;2022-07-12T09:00:16;2.85;;;2.00;;
11504;SDS011;5809;53.262;10.408;2022-07-12T09:02:45;1.95;;;1.63;;
11504;SDS011;5809;53.262;10.408;2022-07-12T09:05:13;3.15;;;2.05;;
11504;SDS011;5809;53.262;10.408;2022-07-12T09:07:40;2.22;;;1.90;;
11504;SDS011;5809;53.262;10.408;2022-07-12T09:10:09;1.92;;;1.40;;
11504;SDS011;5809;53.262;10.408;2022-07-12T09:12:38;1.92;;;1.73;;
11504;SDS011;5809;53.262;10.408;2022-07-12T09:15:16;1.80;;;1.70;;
11504;SDS011;5809;53.262;10.408;2022-07-12T09:17:55;2.55;;;1.80;;
11504;SDS011;5809;53.262;10.408;2022-07-12T09:20:24;2.28;;;1.70;;
11504;SDS011;5809;53.262;10.408;2022-07-12T09:22:52;1.60;;;1.50;;
11504;SDS011;5809;53.262;10.408;2022-07-12T09:25:21;2.28;;;1.60;;
11504;SDS011;5809;53.262;10.408;2022-07-12T09:27:51;1.70;;;1.58;;
11504;SDS011;5809;53.262;10.408;2022-07-12T09:30:20;2.15;;;1.77;;
11504;SDS011;5809;53.262;10.408;2022-07-12T09:32:49;2.22;;;1.60;;
11504;SDS011;5809;53.262;10.408;2022-07-12T09:35:36;1.70;;;1.60;;
11504;SDS011;5809;53.262;10.408;2022-07-12T09:38:21;2.00;;;1.55;;
11504;SDS011;5809;53.262;10.408;2022-07-12T09:40:48;1.65;;;1.55;;
11504;SDS011;5809;53.262;10.408;2022-07-12T09:43:18;1.65;;;1.55;;
11504;SDS011;5809;53.262;10.408;2022-07-12T09:45:46;1.73;;;1.63;;
11504;SDS011;5809;53.262;10.408;2022-07-12T09:48:14;1.77;;;1.67;;
11504;SDS011;5809;53.262;10.408;2022-07-12T09:50:45;1.73;;;1.63;;
11504;SDS011;5809;53.262;10.408;2022-07-12T09:53:14;1.70;;;1.60;;
11504;SDS011;5809;53.262;10.408;2022-07-12T09:56:02;5.15;;;1.80;;
11504;SDS011;5809;53.262;10.408;2022-07-12T09:58:31;1.98;;;1.75;;
11504;SDS011;5809;53.262;10.408;2022-07-12T10:01:05;3.10;;;2.40;;
11504;SDS011;5809;53.262;10.408;2022-07-12T10:03:35;8.27;;;7.57;;
11504;SDS011;5809;53.262;10.408;2022-07-12T10:06:09;5.13;;;3.50;;
11504;SDS011;5809;53.262;10.408;2022-07-12T10:08:38;1.60;;;1.50;;
11504;SDS011;5809;53.262;10.408;2022-07-12T10:11:19;3.03;;;2.20;;
11504;SDS011;5809;53.262;10.408;2022-07-12T10:13:48;3.05;;;2.33;;
11504;SDS011;5809;53.262;10.408;2022-07-12T10:16:24;7.18;;;2.00;;
11504;SDS011;5809;53.262;10.408;2022-07-12T10:21:51;1.58;;;1.40;;
11504;SDS011;5809;53.262;10.408;2022-07-12T10:27:27;2.22;;;1.70;;
11504;SDS011;5809;53.262;10.408;2022-07-12T10:30:13;1.63;;;1.38;;
11504;SDS011;5809;53.262;10.408;2022-07-12T10:32:45;2.13;;;1.60;;
11504;SDS011;5809;53.262;10.408;2022-07-12T10:35:15;1.73;;;1.63;;
11504;SDS011;5809;53.262;10.408;2022-07-12T10:40:54;1.92;;;1.60;;
11504;SDS011;5809;53.262;10.408;2022-07-12T10:43:22;2.95;;;1.30;;
11504;SDS011;5809;53.262;10.408;2022-07-12T10:46:16;2.17;;;1.50;;
11504;SDS011;5809;53.262;10.408;2022-07-12T10:48:45;1.58;;;1.48;;
11504;SDS011;5809;53.262;10.408;2022-07-12T10:51:13;1.65;;;1.50;;
11504;SDS011;5809;53.262;10.408;2022-07-12T10:53:43;3.22;;;1.50;;
11504;SDS011;5809;53.262;10.408;2022-07-12T10:56:15;1.52;;;1.42;;
11504;SDS011;5809;53.262;10.408;2022-07-12T10:58:58;1.52;;;1.42;;
11504;SDS011;5809;53.262;10.408;2022-07-12T11:01:26;1.60;;;1.50;;
11504;SDS011;5809;53.262;10.408;2022-07-12T11:03:55;1.95;;;1.40;;
11504;SDS011;5809;53.262;10.408;2022-07-12T11:06:29;1.65;;;1.55;;
11504;SDS011;5809;53.262;10.408;2022-07-12T11:08:58;1.70;;;1.60;;
11504;SDS011;5809;53.262;10.408;2022-07-12T11:11:43;3.00;;;1.73;;
11504;SDS011;5809;53.262;10.408;2022-07-12T11:14:21;2.25;;;1.63;;
11504;SDS011;5809;53.262;10.408;2022-07-12T11:16:49;1.50;;;1.40;;
11504;SDS011;5809;53.262;10.408;2022-07-12T11:19:20;3.22;;;1.60;;
11504;SDS011;5809;53.262;10.408;2022-07-12T11:21:54;1.73;;;1.63;;
11504;SDS011;5809;53.262;10.408;2022-07-12T11:24:24;3.30;;;1.45;;
11504;SDS011;5809;53.262;10.408;2022-07-12T11:26:52;6.85;;;5.80;;
11504;SDS011;5809;53.262;10.408;2022-07-12T11:29:20;6.50;;;4.60;;
11504;SDS011;5809;53.262;10.408;2022-07-12T11:31:47;1.60;;;1.50;;
11504;SDS011;5809;53.262;10.408;2022-07-12T11:34:21;1.30;;;1.20;;
11504;SDS011;5809;53.262;10.408;2022-07-12T11:36:50;1.50;;;1.40;;
11504;SDS011;5809;53.262;10.408;2022-07-12T11:39:30;2.05;;;1.40;;
11504;SDS011;5809;53.262;10.408;2022-07-12T11:41:58;1.60;;;1.20;;
11504;SDS011;5809;53.262;10.408;2022-07-12T11:44:40;1.80;;;1.15;;
11504;SDS011;5809;53.262;10.408;2022-07-12T11:47:08;1.30;;;1.20;;
11504;SDS011;5809;53.262;10.408;2022-07-12T11:49:37;1.40;;;1.30;;
11504;SDS011;5809;53.262;10.408;2022-07-12T11:52:11;2.30;;;1.30;;
11504;SDS011;5809;53.262;10.408;2022-07-12T11:54:40;2.00;;;1.55;;
11504;SDS011;5809;53.262;10.408;2022-07-12T11:57:08;1.75;;;1.30;;
11504;SDS011;5809;53.262;10.408;2022-07-12T11:59:35;1.50;;;1.40;;
11504;SDS011;5809;53.262;10.408;2022-07-12T12:02:10;2.45;;;1.50;;
11504;SDS011;5809;53.262;10.408;2022-07-12T12:04:45;1.40;;;1.30;;
11504;SDS011;5809;53.262;10.408;2022-07-12T12:07:13;1.65;;;1.30;;
11504;SDS011;5809;53.262;10.408;2022-07-12T12:09:59;1.60;;;1.48;;
11504;SDS011;5809;53.262;10.408;2022-07-12T12:12:34;1.17;;;1.08;;
11504;SDS011;5809;53.262;10.408;2022-07-12T12:15:04;1.45;;;1.35;;
11504;SDS011;5809;53.262;10.408;2022-07-12T12:17:32;1.92;;;1.80;;
11504;SDS011;5809;53.262;10.408;2022-07-12T12:20:07;1.38;;;1.27;;
11504;SDS011;5809;53.262;10.408;2022-07-12T12:22:36;2.30;;;1.30;;
11504;SDS011;5809;53.262;10.408;2022-07-12T12:25:05;5.07;;;1.60;;
11504;SDS011;5809;53.262;10.408;2022-07-12T12:27:41;3.40;;;1.73;;
11504;SDS011;5809;53.262;10.408;2022-07-12T12:30:10;4.32;;;1.60;;
11504;SDS011;5809;53.262;10.408;2022-07-12T12:32:44;1.40;;;1.30;;
11504;SDS011;5809;53.262;10.408;2022-07-12T12:35:19;1.50;;;1.40;;
11504;SDS011;5809;53.262;10.408;2022-07-12T12:37:51;1.70;;;1.60;;
11504;SDS011;5809;53.262;10.408;2022-07-12T12:40:21;2.00;;;1.80;;
11504;SDS011;5809;53.262;10.408;2022-07-12T12:42:50;2.17;;;1.40;;
11504;SDS011;5809;53.262;10.408;2022-07-12T12:45:21;2.55;;;1.70;;
11504;SDS011;5809;53.262;10.408;2022-07-12T12:47:56;1.70;;;1.60;;
11504;SDS011;5809;53.262;10.408;2022-07-12T12:50:40;2.50;;;1.75;;
11504;SDS011;5809;53.262;10.408;2022-07-12T12:53:12;2.22;;;1.60;;
11504;SDS011;5809;53.262;10.408;2022-07-12T12:55:43;4.30;;;1.60;;
11504;SDS011;5809;53.262;10.408;2022-07-12T12:58:11;2.03;;;1.83;;
11504;SDS011;5809;53.262;10.408;2022-07-12T13:00:40;1.83;;;1.73;;
11504;SDS011;5809;53.262;10.408;2022-07-12T13:03:08;3.78;;;1.40;;
11504;SDS011;5809;53.262;10.408;2022-07-12T13:05:35;2.55;;;1.77;;
11504;SDS011;5809;53.262;10.408;2022-07-12T13:08:03;2.58;;;1.60;;
11504;SDS011;5809;53.262;10.408;2022-07-12T13:10:32;2.38;;;1.77;;
11504;SDS011;5809;53.262;10.408;2022-07-12T13:13:01;2.72;;;1.63;;
11504;SDS011;5809;53.262;10.408;2022-07-12T13:15:29;2.90;;;1.80;;
11504;SDS011;5809;53.262;10.408;2022-07-12T13:17:56;2.00;;;1.58;;
11504;SDS011;5809;53.262;10.408;2022-07-12T13:20:23;1.30;;;1.20;;
11504;SDS011;5809;53.262;10.408;2022-07-12T13:22:51;1.65;;;1.55;;
11504;SDS011;5809;53.262;10.408;2022-07-12T13:25:19;1.75;;;1.65;;
11504;SDS011;5809;53.262;10.408;2022-07-12T13:27:46;2.25;;;1.70;;
11504;SDS011;5809;53.262;10.408;2022-07-12T13:30:15;2.22;;;1.60;;
11504;SDS011;5809;53.262;10.408;2022-07-12T13:32:42;1.50;;;1.40;;
11504;SDS011;5809;53.262;10.408;2022-07-12T13:35:10;6.20;;;1.73;;
11504;SDS011;5809;53.262;10.408;2022-07-12T13:37:38;1.95;;;1.38;;
11504;SDS011;5809;53.262;10.408;2022-07-12T13:40:07;2.00;;;1.38;;
11504;SDS011;5809;53.262;10.408;2022-07-12T13:42:40;2.25;;;1.20;;
11504;SDS011;5809;53.262;10.408;2022-07-12T13:45:08;3.05;;;1.48;;
11504;SDS011;5809;53.262;10.408;2022-07-12T13:47:39;1.48;;;1.38;;
11504;SDS011;5809;53.262;10.408;2022-07-12T13:50:07;1.90;;;1.40;;
11504;SDS011;5809;53.262;10.408;2022-07-12T13:52:35;1.70;;;1.15;;
11504;SDS011;5809;53.262;10.408;2022-07-12T13:55:04;4.20;;;1.50;;
11504;SDS011;5809;53.262;10.408;2022-07-12T13:57:33;1.05;;;1.00;;
11504;SDS011;5809;53.262;10.408;2022-07-12T14:00:01;2.20;;;1.10;;
11504;SDS011;5809;53.262;10.408;2022-07-12T14:02:28;1.35;;;1.10;;
11504;SDS011;5809;53.262;10.408;2022-07-12T14:04:56;0.80;;;0.80;;
11504;SDS011;5809;53.262;10.408;2022-07-12T14:07:23;2.70;;;0.95;;
11504;SDS011;5809;53.262;10.408;2022-07-12T14:09:50;1.77;;;0.90;;
11504;SDS011;5809;53.262;10.408;2022-07-12T14:12:18;1.95;;;0.93;;
11504;SDS011;5809;53.262;10.408;2022-07-12T14:14:45;1.05;;;0.95;;
11504;SDS011;5809;53.262;10.408;2022-07-12T14:17:29;2.08;;;1.00;;
11504;SDS011;5809;53.262;10.408;2022-07-12T14:19:59;1.50;;;0.90;;
11504;SDS011;5809;53.262;10.408;2022-07-12T14:22:27;2.95;;;1.02;;
11504;SDS011;5809;53.262;10.408;2022-07-12T14:24:54;0.85;;;0.85;;
11504;SDS011;5809;53.262;10.408;2022-07-12T14:27:21;2.90;;;1.48;;
11504;SDS011;5809;53.262;10.408;2022-07-12T14:29:48;3.17;;;1.60;;
11504;SDS011;5809;53.262;10.408;2022-07-12T14:32:15;1.75;;;1.20;;
11504;SDS011;5809;53.262;10.408;2022-07-12T14:34:43;1.15;;;1.05;;
11504;SDS011;5809;53.262;10.408;2022-07-12T14:37:11;2.50;;;1.00;;
11504;SDS011;5809;53.262;10.408;2022-07-12T14:39:38;1.60;;;1.13;;
11504;SDS011;5809;53.262;10.408;2022-07-12T14:42:07;2.15;;;1.20;;
11504;SDS011;5809;53.262;10.408;2022-07-12T14:44:35;5.45;;;1.20;;
11504;SDS011;5809;53.262;10.408;2022-07-12T14:47:02;3.60;;;1.05;;
11504;SDS011;5809;53.262;10.408;2022-07-12T14:49:30;1.67;;;1.02;;
11504;SDS011;5809;53.262;10.408;2022-07-12T14:51:57;1.20;;;1.10;;
11504;SDS011;5809;53.262;10.408;2022-07-12T14:54:26;1.20;;;0.95;;
11504;SDS011;5809;53.262;10.408;2022-07-12T14:56:53;1.55;;;1.10;;
11504;SDS011;5809;53.262;10.408;2022-07-12T14:59:20;2.40;;;1.10;;
11504;SDS011;5809;53.262;10.408;2022-07-12T15:01:48;6.13;;;1.33;;
11504;SDS011;5809;53.262;10.408;2022-07-12T15:04:15;1.25;;;1.15;;
11504;SDS011;5809;53.262;10.408;2022-07-12T15:06:42;2.15;;;1.10;;